sensor_id;sensor_type;location;lat;lon;timestamp;P1;durP1;ratioP1;P2;durP2;ratioP2
12112;SDS011;6120;52.250;8.478;2024-01-11T00:00:30;39.67;;;15.32;;
12112;SDS011;6120;52.250;8.478;2024-01-11T00:02:57;35.92;;;14.27;;
12112;SDS011;6120;52.250;8.478;2024-01-11T00:05:24;34.08;;;14.15;;
12112;SDS011;6120;52.250;8.478;2024-01-11T00:07:51;38.07;;;15.43;;
12112;SDS011;6120;52.250;8.478;2024-01-11T00:10:18;36.95;;;14.93;;
12112;SDS011;6120;52.250;8.478;2024-01-11T00:12:45;38.92;;;15.15;;
12112;SDS011;6120;52.250;8.478;2024-01-11T00:15:12;40.00;;;14.40;;
12112;SDS011;6120;52.250;8.478;2024-01-11T00:17:39;39.20;;;14.77;;
12112;SDS011;6120;52.250;8.478;2024-01-11T00:20:06;32.95;;;14.15;;
12112;SDS011;6120;52.250;8.478;2024-01-11T00:22:33;33.88;;;14.05;;
12112;SDS011;6120;52.250;8.478;2024-01-11T00:25:00;37.25;;;13.57;;
12112;SDS011;6120;52.250;8.478;2024-01-11T00:27:27;32.35;;;13.73;;
12112;SDS011;6120;52.250;8.478;2024-01-11T00:29:53;38.28;;;14.05;;
12112;SDS011;6120;52.250;8.478;2024-01-11T00:32:20;35.42;;;13.82;;
12112;SDS011;6120;52.250;8.478;2024-01-11T00:34:49;31.98;;;13.02;;
12112;SDS011;6120;52.250;8.478;2024-01-11T00:37:16;35.38;;;14.45;;
12112;SDS011;6120;52.250;8.478;2024-01-11T00:39:43;35.33;;;13.70;;
12112;SDS011;6120;52.250;8.478;2024-01-11T00:42:10;36.05;;;14.40;;
12112;SDS011;6120;52.250;8.478;2024-01-11T00:44:36;39.53;;;14.30;;
12112;SDS011;6120;52.250;8.478;2024-01-11T00:47:03;38.92;;;14.38;;
12112;SDS011;6120;52.250;8.478;2024-01-11T00:49:30;37.75;;;13.80;;
12112;SDS011;6120;52.250;8.478;2024-01-11T00:51:57;37.65;;;13.43;;
12112;SDS011;6120;52.250;8.478;2024-01-11T00:54:23;37.00;;;13.70;;
12112;SDS011;6120;52.250;8.478;2024-01-11T00:56:51;43.30;;;15.02;;
12112;SDS011;6120;52.250;8.478;2024-01-11T00:59:18;31.88;;;13.40;;
12112;SDS011;6120;52.250;8.478;2024-01-11T01:01:48;42.65;;;14.45;;
12112;SDS011;6120;52.250;8.478;2024-01-11T01:04:15;39.20;;;14.73;;
12112;SDS011;6120;52.250;8.478;2024-01-11T01:06:42;39.50;;;15.60;;
12112;SDS011;6120;52.250;8.478;2024-01-11T01:09:10;40.93;;;15.27;;
12112;SDS011;6120;52.250;8.478;2024-01-11T01:11:36;47.10;;;16.33;;
12112;SDS011;6120;52.250;8.478;2024-01-11T01:14:03;39.67;;;14.15;;
12112;SDS011;6120;52.250;8.478;2024-01-11T01:16:31;39.70;;;14.90;;
12112;SDS011;6120;52.250;8.478;2024-01-11T01:18:57;37.38;;;14.18;;
12112;SDS011;6120;52.250;8.478;2024-01-11T01:21:24;38.42;;;14.18;;
12112;SDS011;6120;52.250;8.478;2024-01-11T01:23:51;43.63;;;14.68;;
12112;SDS011;6120;52.250;8.478;2024-01-11T01:26:18;49.35;;;15.93;;
12112;SDS011;6120;52.250;8.478;2024-01-11T01:28:45;41.90;;;14.70;;
12112;SDS011;6120;52.250;8.478;2024-01-11T01:31:11;40.78;;;14.45;;
12112;SDS011;6120;52.250;8.478;2024-01-11T01:33:39;42.22;;;14.93;;
12112;SDS011;6120;52.250;8.478;2024-01-11T01:36:10;35.08;;;13.63;;
12112;SDS011;6120;52.250;8.478;2024-01-11T01:38:37;47.75;;;16.05;;
12112;SDS011;6120;52.250;8.478;2024-01-11T01:41:04;36.75;;;15.73;;
12112;SDS011;6120;52.250;8.478;2024-01-11T01:43:32;42.70;;;13.55;;
12112;SDS011;6120;52.250;8.478;2024-01-11T01:45:59;44.85;;;15.65;;
12112;SDS011;6120;52.250;8.478;2024-01-11T01:48:26;37.08;;;14.45;;
12112;SDS011;6120;52.250;8.478;2024-01-11T01:50:53;38.25;;;14.63;;
12112;SDS011;6120;52.250;8.478;2024-01-11T01:53:21;37.28;;;14.35;;
12112;SDS011;6120;52.250;8.478;2024-01-11T01:55:49;35.72;;;14.30;;
12112;SDS011;6120;52.250;8.478;2024-01-11T01:58:16;38.67;;;15.00;;
12112;SDS011;6120;52.250;8.478;2024-01-11T02:00:44;39.90;;;15.25;;
12112;SDS011;6120;52.250;8.478;2024-01-11T02:03:12;39.15;;;14.40;;
12112;SDS011;6120;52.250;8.478;2024-01-11T02:05:39;39.10;;;16.13;;
12112;SDS011;6120;52.250;8.478;2024-01-11T02:08:06;38.15;;;16.30;;
12112;SDS011;6120;52.250;8.478;2024-01-11T02:10:36;41.65;;;16.33;;
12112;SDS011;6120;52.250;8.478;2024-01-11T02:13:03;43.85;;;16.67;;
12112;SDS011;6120;52.250;8.478;2024-01-11T02:15:35;37.63;;;15.20;;
12112;SDS011;6120;52.250;8.478;2024-01-11T02:18:01;42.53;;;16.35;;
12112;SDS011;6120;52.250;8.478;2024-01-11T02:20:28;45.05;;;17.75;;
12112;SDS011;6120;52.250;8.478;2024-01-11T02:22:56;40.45;;;16.65;;
12112;SDS011;6120;52.250;8.478;2024-01-11T02:25:27;51.22;;;17.25;;
12112;SDS011;6120;52.250;8.478;2024-01-11T02:27:54;43.15;;;15.60;;
12112;SDS011;6120;52.250;8.478;2024-01-11T02:30:21;45.55;;;16.75;;
12112;SDS011;6120;52.250;8.478;2024-01-11T02:32:49;41.10;;;16.77;;
12112;SDS011;6120;52.250;8.478;2024-01-11T02:35:17;42.63;;;16.13;;
12112;SDS011;6120;52.250;8.478;2024-01-11T02:37:45;46.15;;;16.38;;
12112;SDS011;6120;52.250;8.478;2024-01-11T02:40:13;40.65;;;16.30;;
12112;SDS011;6120;52.250;8.478;2024-01-11T02:42:40;40.30;;;15.65;;
12112;SDS011;6120;52.250;8.478;2024-01-11T02:45:07;38.97;;;15.60;;
12112;SDS011;6120;52.250;8.478;2024-01-11T02:47:34;43.65;;;15.73;;
12112;SDS011;6120;52.250;8.478;2024-01-11T02:50:01;39.50;;;15.40;;
12112;SDS011;6120;52.250;8.478;2024-01-11T02:52:27;34.33;;;14.27;;
12112;SDS011;6120;52.250;8.478;2024-01-11T02:54:54;40.35;;;15.23;;
12112;SDS011;6120;52.250;8.478;2024-01-11T02:57:21;43.00;;;16.27;;
12112;SDS011;6120;52.250;8.478;2024-01-11T02:59:49;38.75;;;15.57;;
12112;SDS011;6120;52.250;8.478;2024-01-11T03:02:15;45.00;;;17.10;;
12112;SDS011;6120;52.250;8.478;2024-01-11T03:04:42;30.55;;;13.52;;
12112;SDS011;6120;52.250;8.478;2024-01-11T03:07:09;35.70;;;13.52;;
12112;SDS011;6120;52.250;8.478;2024-01-11T03:09:36;29.67;;;11.60;;
12112;SDS011;6120;52.250;8.478;2024-01-11T03:12:02;34.05;;;12.65;;
12112;SDS011;6120;52.250;8.478;2024-01-11T03:14:29;31.07;;;12.87;;
12112;SDS011;6120;52.250;8.478;2024-01-11T03:16:56;34.40;;;11.32;;
12112;SDS011;6120;52.250;8.478;2024-01-11T03:19:23;34.00;;;12.82;;
12112;SDS011;6120;52.250;8.478;2024-01-11T03:21:50;33.55;;;14.15;;
12112;SDS011;6120;52.250;8.478;2024-01-11T03:24:16;43.05;;;15.20;;
12112;SDS011;6120;52.250;8.478;2024-01-11T03:26:43;39.47;;;15.98;;
12112;SDS011;6120;52.250;8.478;2024-01-11T03:29:10;50.83;;;18.42;;
12112;SDS011;6120;52.250;8.478;2024-01-11T03:31:37;45.67;;;16.48;;
12112;SDS011;6120;52.250;8.478;2024-01-11T03:34:07;40.88;;;15.43;;
12112;SDS011;6120;52.250;8.478;2024-01-11T03:36:34;43.43;;;16.00;;
12112;SDS011;6120;52.250;8.478;2024-01-11T03:39:01;41.25;;;15.65;;
12112;SDS011;6120;52.250;8.478;2024-01-11T03:41:28;38.40;;;15.30;;
12112;SDS011;6120;52.250;8.478;2024-01-11T03:43:54;39.22;;;14.85;;
12112;SDS011;6120;52.250;8.478;2024-01-11T03:46:21;37.10;;;15.10;;
12112;SDS011;6120;52.250;8.478;2024-01-11T03:48:48;36.60;;;14.95;;
12112;SDS011;6120;52.250;8.478;2024-01-11T03:51:15;39.70;;;15.57;;
12112;SDS011;6120;52.250;8.478;2024-01-11T03:53:41;37.63;;;14.52;;
12112;SDS011;6120;52.250;8.478;2024-01-11T03:56:08;40.13;;;16.92;;
12112;SDS011;6120;52.250;8.478;2024-01-11T03:58:36;39.63;;;15.10;;
12112;SDS011;6120;52.250;8.478;2024-01-11T04:01:05;40.90;;;14.23;;
12112;SDS011;6120;52.250;8.478;2024-01-11T04:03:34;41.35;;;15.63;;
12112;SDS011;6120;52.250;8.478;2024-01-11T04:06:01;38.58;;;15.45;;
12112;SDS011;6120;52.250;8.478;2024-01-11T04:08:28;38.67;;;15.35;;
12112;SDS011;6120;52.250;8.478;2024-01-11T04:10:54;35.92;;;14.10;;
12112;SDS011;6120;52.250;8.478;2024-01-11T04:13:21;43.97;;;16.02;;
12112;SDS011;6120;52.250;8.478;2024-01-11T04:15:50;39.30;;;15.82;;
12112;SDS011;6120;52.250;8.478;2024-01-11T04:18:17;40.55;;;15.13;;
12112;SDS011;6120;52.250;8.478;2024-01-11T04:20:44;36.78;;;14.95;;
12112;SDS011;6120;52.250;8.478;2024-01-11T04:23:10;42.70;;;15.95;;
12112;SDS011;6120;52.250;8.478;2024-01-11T04:25:37;39.42;;;14.20;;
12112;SDS011;6120;52.250;8.478;2024-01-11T04:28:04;41.45;;;15.38;;
12112;SDS011;6120;52.250;8.478;2024-01-11T04:30:31;37.17;;;14.52;;
12112;SDS011;6120;52.250;8.478;2024-01-11T04:32:58;37.70;;;15.23;;
12112;SDS011;6120;52.250;8.478;2024-01-11T04:35:24;37.05;;;14.35;;
12112;SDS011;6120;52.250;8.478;2024-01-11T04:37:51;34.17;;;13.55;;
12112;SDS011;6120;52.250;8.478;2024-01-11T04:40:18;38.08;;;14.60;;
12112;SDS011;6120;52.250;8.478;2024-01-11T04:42:45;39.72;;;14.05;;
12112;SDS011;6120;52.250;8.478;2024-01-11T04:45:11;37.60;;;14.30;;
12112;SDS011;6120;52.250;8.478;2024-01-11T04:47:38;32.83;;;14.35;;
12112;SDS011;6120;52.250;8.478;2024-01-11T04:50:05;36.92;;;15.02;;
12112;SDS011;6120;52.250;8.478;2024-01-11T04:52:32;36.28;;;13.68;;
12112;SDS011;6120;52.250;8.478;2024-01-11T04:54:59;30.90;;;12.77;;
12112;SDS011;6120;52.250;8.478;2024-01-11T04:57:26;35.17;;;13.48;;
12112;SDS011;6120;52.250;8.478;2024-01-11T04:59:52;33.47;;;13.70;;
12112;SDS011;6120;52.250;8.478;2024-01-11T05:02:22;32.03;;;13.43;;
12112;SDS011;6120;52.250;8.478;2024-01-11T05:04:49;37.65;;;14.15;;
12112;SDS011;6120;52.250;8.478;2024-01-11T05:07:16;35.15;;;13.73;;
12112;SDS011;6120;52.250;8.478;2024-01-11T05:09:42;31.92;;;12.73;;
12112;SDS011;6120;52.250;8.478;2024-01-11T05:12:09;35.08;;;13.55;;
12112;SDS011;6120;52.250;8.478;2024-01-11T05:14:36;31.30;;;12.23;;
12112;SDS011;6120;52.250;8.478;2024-01-11T05:17:02;32.80;;;11.98;;
12112;SDS011;6120;52.250;8.478;2024-01-11T05:19:29;34.10;;;13.15;;
12112;SDS011;6120;52.250;8.478;2024-01-11T05:21:56;34.47;;;13.93;;
12112;SDS011;6120;52.250;8.478;2024-01-11T05:24:23;34.55;;;14.18;;
12112;SDS011;6120;52.250;8.478;2024-01-11T05:26:49;32.45;;;13.95;;
12112;SDS011;6120;52.250;8.478;2024-01-11T05:29:17;27.25;;;11.05;;
12112;SDS011;6120;52.250;8.478;2024-01-11T05:31:44;33.92;;;13.57;;
12112;SDS011;6120;52.250;8.478;2024-01-11T05:34:11;32.97;;;14.02;;
12112;SDS011;6120;52.250;8.478;2024-01-11T05:36:39;36.90;;;14.77;;
12112;SDS011;6120;52.250;8.478;2024-01-11T05:39:06;39.15;;;13.30;;
12112;SDS011;6120;52.250;8.478;2024-01-11T05:41:33;41.38;;;14.63;;
12112;SDS011;6120;52.250;8.478;2024-01-11T05:43:59;35.63;;;14.57;;
12112;SDS011;6120;52.250;8.478;2024-01-11T05:46:27;40.80;;;14.95;;
12112;SDS011;6120;52.250;8.478;2024-01-11T05:48:56;38.78;;;15.52;;
12112;SDS011;6120;52.250;8.478;2024-01-11T05:51:23;39.05;;;15.43;;
12112;SDS011;6120;52.250;8.478;2024-01-11T05:53:50;40.95;;;14.77;;
12112;SDS011;6120;52.250;8.478;2024-01-11T05:56:18;35.50;;;15.05;;
12112;SDS011;6120;52.250;8.478;2024-01-11T05:58:46;34.65;;;13.45;;
12112;SDS011;6120;52.250;8.478;2024-01-11T06:01:13;28.92;;;12.95;;
12112;SDS011;6120;52.250;8.478;2024-01-11T06:03:40;34.92;;;13.15;;
12112;SDS011;6120;52.250;8.478;2024-01-11T06:06:07;37.25;;;15.00;;
12112;SDS011;6120;52.250;8.478;2024-01-11T06:08:35;32.55;;;13.25;;
12112;SDS011;6120;52.250;8.478;2024-01-11T06:11:02;33.97;;;13.60;;
12112;SDS011;6120;52.250;8.478;2024-01-11T06:13:30;32.67;;;13.07;;
12112;SDS011;6120;52.250;8.478;2024-01-11T06:15:57;31.02;;;13.18;;
12112;SDS011;6120;52.250;8.478;2024-01-11T06:18:24;33.15;;;13.63;;
12112;SDS011;6120;52.250;8.478;2024-01-11T06:20:51;36.60;;;13.77;;
12112;SDS011;6120;52.250;8.478;2024-01-11T06:23:17;39.05;;;14.63;;
12112;SDS011;6120;52.250;8.478;2024-01-11T06:25:46;33.72;;;14.57;;
12112;SDS011;6120;52.250;8.478;2024-01-11T06:28:12;39.85;;;14.73;;
12112;SDS011;6120;52.250;8.478;2024-01-11T06:30:39;37.60;;;14.25;;
12112;SDS011;6120;52.250;8.478;2024-01-11T06:33:06;32.33;;;11.80;;
12112;SDS011;6120;52.250;8.478;2024-01-11T06:35:33;32.95;;;12.95;;
12112;SDS011;6120;52.250;8.478;2024-01-11T06:38:00;32.35;;;14.02;;
12112;SDS011;6120;52.250;8.478;2024-01-11T06:40:27;34.22;;;13.15;;
12112;SDS011;6120;52.250;8.478;2024-01-11T06:42:53;36.05;;;14.57;;
12112;SDS011;6120;52.250;8.478;2024-01-11T06:45:20;37.45;;;13.45;;
12112;SDS011;6120;52.250;8.478;2024-01-11T06:47:47;29.55;;;12.82;;
12112;SDS011;6120;52.250;8.478;2024-01-11T06:50:15;39.38;;;13.35;;
12112;SDS011;6120;52.250;8.478;2024-01-11T06:52:42;30.45;;;13.15;;
12112;SDS011;6120;52.250;8.478;2024-01-11T06:55:09;28.60;;;11.65;;
12112;SDS011;6120;52.250;8.478;2024-01-11T06:57:37;39.97;;;15.90;;
12112;SDS011;6120;52.250;8.478;2024-01-11T07:00:05;36.13;;;14.23;;
12112;SDS011;6120;52.250;8.478;2024-01-11T07:02:33;32.22;;;13.43;;
12112;SDS011;6120;52.250;8.478;2024-01-11T07:05:00;34.17;;;14.48;;
12112;SDS011;6120;52.250;8.478;2024-01-11T07:07:27;36.53;;;12.77;;
12112;SDS011;6120;52.250;8.478;2024-01-11T07:09:54;28.40;;;12.13;;
12112;SDS011;6120;52.250;8.478;2024-01-11T07:12:22;34.42;;;12.93;;
12112;SDS011;6120;52.250;8.478;2024-01-11T07:14:48;30.70;;;12.70;;
12112;SDS011;6120;52.250;8.478;2024-01-11T07:17:15;33.42;;;14.60;;
12112;SDS011;6120;52.250;8.478;2024-01-11T07:19:42;33.15;;;13.85;;
12112;SDS011;6120;52.250;8.478;2024-01-11T07:22:09;31.67;;;14.33;;
12112;SDS011;6120;52.250;8.478;2024-01-11T07:24:36;36.95;;;13.75;;
12112;SDS011;6120;52.250;8.478;2024-01-11T07:27:04;34.60;;;13.75;;
12112;SDS011;6120;52.250;8.478;2024-01-11T07:29:32;36.20;;;15.10;;
12112;SDS011;6120;52.250;8.478;2024-01-11T07:32:01;38.53;;;14.90;;
12112;SDS011;6120;52.250;8.478;2024-01-11T07:34:32;34.20;;;13.55;;
12112;SDS011;6120;52.250;8.478;2024-01-11T07:36:59;32.53;;;12.98;;
12112;SDS011;6120;52.250;8.478;2024-01-11T07:39:26;31.63;;;12.45;;
12112;SDS011;6120;52.250;8.478;2024-01-11T07:41:52;32.80;;;12.95;;
12112;SDS011;6120;52.250;8.478;2024-01-11T07:44:19;38.58;;;13.07;;
12112;SDS011;6120;52.250;8.478;2024-01-11T07:46:47;33.83;;;12.73;;
12112;SDS011;6120;52.250;8.478;2024-01-11T07:49:20;32.50;;;12.43;;
12112;SDS011;6120;52.250;8.478;2024-01-11T07:51:47;28.65;;;12.60;;
12112;SDS011;6120;52.250;8.478;2024-01-11T07:54:14;34.47;;;12.00;;
12112;SDS011;6120;52.250;8.478;2024-01-11T07:56:41;34.13;;;13.32;;
12112;SDS011;6120;52.250;8.478;2024-01-11T07:59:08;33.50;;;12.57;;
12112;SDS011;6120;52.250;8.478;2024-01-11T08:01:40;31.70;;;13.30;;
12112;SDS011;6120;52.250;8.478;2024-01-11T08:04:07;30.05;;;13.38;;
12112;SDS011;6120;52.250;8.478;2024-01-11T08:06:34;36.30;;;13.63;;
12112;SDS011;6120;52.250;8.478;2024-01-11T08:09:01;34.65;;;13.50;;
12112;SDS011;6120;52.250;8.478;2024-01-11T08:11:27;34.50;;;14.40;;
12112;SDS011;6120;52.250;8.478;2024-01-11T08:13:57;36.88;;;14.07;;
12112;SDS011;6120;52.250;8.478;2024-01-11T08:16:24;31.83;;;12.32;;
12112;SDS011;6120;52.250;8.478;2024-01-11T08:18:50;33.88;;;14.77;;
12112;SDS011;6120;52.250;8.478;2024-01-11T08:21:17;32.20;;;13.93;;
12112;SDS011;6120;52.250;8.478;2024-01-11T08:23:44;32.75;;;12.70;;
12112;SDS011;6120;52.250;8.478;2024-01-11T08:26:12;30.65;;;14.05;;
12112;SDS011;6120;52.250;8.478;2024-01-11T08:28:40;41.30;;;17.55;;
12112;SDS011;6120;52.250;8.478;2024-01-11T08:31:08;36.15;;;13.98;;
12112;SDS011;6120;52.250;8.478;2024-01-11T08:33:35;34.37;;;12.87;;
12112;SDS011;6120;52.250;8.478;2024-01-11T08:36:05;29.42;;;12.07;;
12112;SDS011;6120;52.250;8.478;2024-01-11T08:38:33;31.65;;;11.35;;
12112;SDS011;6120;52.250;8.478;2024-01-11T08:41:02;29.23;;;12.73;;
12112;SDS011;6120;52.250;8.478;2024-01-11T08:43:30;30.90;;;12.25;;
12112;SDS011;6120;52.250;8.478;2024-01-11T08:45:56;27.42;;;11.93;;
12112;SDS011;6120;52.250;8.478;2024-01-11T08:48:23;30.73;;;13.68;;
12112;SDS011;6120;52.250;8.478;2024-01-11T08:50:50;25.92;;;11.77;;
12112;SDS011;6120;52.250;8.478;2024-01-11T08:53:17;33.10;;;11.90;;
12112;SDS011;6120;52.250;8.478;2024-01-11T08:55:44;32.03;;;12.30;;
12112;SDS011;6120;52.250;8.478;2024-01-11T08:58:12;37.20;;;12.88;;
12112;SDS011;6120;52.250;8.478;2024-01-11T09:00:39;31.02;;;13.45;;
12112;SDS011;6120;52.250;8.478;2024-01-11T09:03:06;28.52;;;13.63;;
12112;SDS011;6120;52.250;8.478;2024-01-11T09:05:33;39.65;;;14.23;;
12112;SDS011;6120;52.250;8.478;2024-01-11T09:08:00;38.92;;;14.57;;
12112;SDS011;6120;52.250;8.478;2024-01-11T09:10:27;32.50;;;13.88;;
12112;SDS011;6120;52.250;8.478;2024-01-11T09:12:54;37.67;;;15.05;;
12112;SDS011;6120;52.250;8.478;2024-01-11T09:15:21;39.23;;;15.77;;
12112;SDS011;6120;52.250;8.478;2024-01-11T09:17:48;33.13;;;13.02;;
12112;SDS011;6120;52.250;8.478;2024-01-11T09:20:15;37.25;;;15.02;;
12112;SDS011;6120;52.250;8.478;2024-01-11T09:22:43;39.70;;;14.60;;
12112;SDS011;6120;52.250;8.478;2024-01-11T09:25:09;32.40;;;13.27;;
12112;SDS011;6120;52.250;8.478;2024-01-11T09:27:36;30.33;;;12.75;;
12112;SDS011;6120;52.250;8.478;2024-01-11T09:30:03;36.50;;;13.68;;
12112;SDS011;6120;52.250;8.478;2024-01-11T09:32:30;27.25;;;12.77;;
12112;SDS011;6120;52.250;8.478;2024-01-11T09:34:58;29.90;;;12.23;;
12112;SDS011;6120;52.250;8.478;2024-01-11T09:37:25;38.17;;;13.82;;
12112;SDS011;6120;52.250;8.478;2024-01-11T09:39:52;34.60;;;14.02;;
12112;SDS011;6120;52.250;8.478;2024-01-11T09:42:19;34.33;;;13.45;;
12112;SDS011;6120;52.250;8.478;2024-01-11T09:44:45;29.60;;;12.07;;
12112;SDS011;6120;52.250;8.478;2024-01-11T09:47:12;35.22;;;13.73;;
12112;SDS011;6120;52.250;8.478;2024-01-11T09:49:42;29.98;;;12.57;;
12112;SDS011;6120;52.250;8.478;2024-01-11T09:52:11;31.13;;;12.55;;
12112;SDS011;6120;52.250;8.478;2024-01-11T09:54:42;31.15;;;14.05;;
12112;SDS011;6120;52.250;8.478;2024-01-11T09:57:09;30.80;;;13.85;;
12112;SDS011;6120;52.250;8.478;2024-01-11T09:59:37;31.67;;;12.13;;
12112;SDS011;6120;52.250;8.478;2024-01-11T10:02:05;33.63;;;13.57;;
12112;SDS011;6120;52.250;8.478;2024-01-11T10:04:36;35.30;;;14.40;;
12112;SDS011;6120;52.250;8.478;2024-01-11T10:07:07;33.10;;;13.50;;
12112;SDS011;6120;52.250;8.478;2024-01-11T10:09:36;34.40;;;13.68;;
12112;SDS011;6120;52.250;8.478;2024-01-11T10:12:06;34.75;;;15.75;;
12112;SDS011;6120;52.250;8.478;2024-01-11T10:14:35;36.05;;;14.32;;
12112;SDS011;6120;52.250;8.478;2024-01-11T10:17:03;33.03;;;13.75;;
12112;SDS011;6120;52.250;8.478;2024-01-11T10:19:32;39.40;;;14.02;;
12112;SDS011;6120;52.250;8.478;2024-01-11T10:21:59;39.38;;;14.60;;
12112;SDS011;6120;52.250;8.478;2024-01-11T10:24:27;42.72;;;16.10;;
12112;SDS011;6120;52.250;8.478;2024-01-11T10:26:58;35.72;;;14.57;;
12112;SDS011;6120;52.250;8.478;2024-01-11T10:29:30;39.92;;;15.15;;
12112;SDS011;6120;52.250;8.478;2024-01-11T10:31:58;43.55;;;16.40;;
12112;SDS011;6120;52.250;8.478;2024-01-11T10:34:26;40.70;;;15.85;;
12112;SDS011;6120;52.250;8.478;2024-01-11T10:36:53;46.60;;;16.48;;
12112;SDS011;6120;52.250;8.478;2024-01-11T10:39:24;45.13;;;16.23;;
12112;SDS011;6120;52.250;8.478;2024-01-11T10:44:40;54.65;;;18.45;;
12112;SDS011;6120;52.250;8.478;2024-01-11T10:47:13;44.38;;;17.23;;
12112;SDS011;6120;52.250;8.478;2024-01-11T10:49:41;47.65;;;18.02;;
12112;SDS011;6120;52.250;8.478;2024-01-11T10:52:11;49.88;;;17.63;;
12112;SDS011;6120;52.250;8.478;2024-01-11T10:54:39;47.58;;;16.90;;
12112;SDS011;6120;52.250;8.478;2024-01-11T10:57:08;52.22;;;18.42;;
12112;SDS011;6120;52.250;8.478;2024-01-11T10:59:36;47.13;;;18.08;;
12112;SDS011;6120;52.250;8.478;2024-01-11T11:02:07;39.58;;;17.05;;
12112;SDS011;6120;52.250;8.478;2024-01-11T11:04:39;51.63;;;18.02;;
12112;SDS011;6120;52.250;8.478;2024-01-11T11:07:07;46.22;;;16.35;;
12112;SDS011;6120;52.250;8.478;2024-01-11T11:09:35;54.75;;;18.75;;
12112;SDS011;6120;52.250;8.478;2024-01-11T11:12:02;53.50;;;18.47;;
12112;SDS011;6120;52.250;8.478;2024-01-11T11:14:31;47.75;;;17.27;;
12112;SDS011;6120;52.250;8.478;2024-01-11T11:16:59;53.63;;;17.08;;
12112;SDS011;6120;52.250;8.478;2024-01-11T11:19:25;59.42;;;19.73;;
12112;SDS011;6120;52.250;8.478;2024-01-11T11:21:52;57.95;;;18.77;;
12112;SDS011;6120;52.250;8.478;2024-01-11T11:24:19;61.72;;;19.55;;
12112;SDS011;6120;52.250;8.478;2024-01-11T11:26:46;54.00;;;18.90;;
12112;SDS011;6120;52.250;8.478;2024-01-11T11:29:15;53.13;;;19.80;;
12112;SDS011;6120;52.250;8.478;2024-01-11T11:34:12;50.37;;;17.67;;
12112;SDS011;6120;52.250;8.478;2024-01-11T11:36:40;57.85;;;20.13;;
12112;SDS011;6120;52.250;8.478;2024-01-11T11:39:10;59.65;;;19.55;;
12112;SDS011;6120;52.250;8.478;2024-01-11T11:41:41;63.35;;;20.30;;
12112;SDS011;6120;52.250;8.478;2024-01-11T11:44:11;59.28;;;19.35;;
12112;SDS011;6120;52.250;8.478;2024-01-11T11:46:40;53.10;;;20.05;;
12112;SDS011;6120;52.250;8.478;2024-01-11T11:49:07;53.47;;;20.13;;
12112;SDS011;6120;52.250;8.478;2024-01-11T11:51:36;54.50;;;20.10;;
12112;SDS011;6120;52.250;8.478;2024-01-11T11:54:05;62.85;;;21.75;;
12112;SDS011;6120;52.250;8.478;2024-01-11T11:56:33;54.45;;;19.42;;
12112;SDS011;6120;52.250;8.478;2024-01-11T11:59:00;62.55;;;21.88;;
12112;SDS011;6120;52.250;8.478;2024-01-11T12:01:27;55.53;;;20.45;;
12112;SDS011;6120;52.250;8.478;2024-01-11T12:03:54;46.47;;;17.38;;
12112;SDS011;6120;52.250;8.478;2024-01-11T12:06:21;56.67;;;20.20;;
12112;SDS011;6120;52.250;8.478;2024-01-11T12:08:52;58.28;;;19.30;;
12112;SDS011;6120;52.250;8.478;2024-01-11T12:11:23;53.85;;;19.42;;
12112;SDS011;6120;52.250;8.478;2024-01-11T12:13:50;53.72;;;19.45;;
12112;SDS011;6120;52.250;8.478;2024-01-11T12:16:18;66.15;;;21.48;;
12112;SDS011;6120;52.250;8.478;2024-01-11T12:18:48;63.38;;;19.98;;
12112;SDS011;6120;52.250;8.478;2024-01-11T12:21:16;56.35;;;19.98;;
12112;SDS011;6120;52.250;8.478;2024-01-11T12:23:43;53.63;;;19.33;;
12112;SDS011;6120;52.250;8.478;2024-01-11T12:26:10;62.50;;;21.93;;
12112;SDS011;6120;52.250;8.478;2024-01-11T12:28:41;53.58;;;19.48;;
12112;SDS011;6120;52.250;8.478;2024-01-11T12:31:10;57.65;;;20.83;;
12112;SDS011;6120;52.250;8.478;2024-01-11T12:33:39;57.03;;;19.08;;
12112;SDS011;6120;52.250;8.478;2024-01-11T12:36:07;57.70;;;20.73;;
12112;SDS011;6120;52.250;8.478;2024-01-11T12:38:35;56.28;;;20.55;;
12112;SDS011;6120;52.250;8.478;2024-01-11T12:41:02;57.08;;;21.10;;
12112;SDS011;6120;52.250;8.478;2024-01-11T12:43:30;64.32;;;19.77;;
12112;SDS011;6120;52.250;8.478;2024-01-11T12:45:57;61.90;;;21.35;;
12112;SDS011;6120;52.250;8.478;2024-01-11T12:48:24;56.75;;;19.00;;
12112;SDS011;6120;52.250;8.478;2024-01-11T12:50:51;52.35;;;18.42;;
12112;SDS011;6120;52.250;8.478;2024-01-11T12:53:39;64.03;;;20.92;;
12112;SDS011;6120;52.250;8.478;2024-01-11T12:56:06;55.88;;;19.20;;
12112;SDS011;6120;52.250;8.478;2024-01-11T12:58:37;52.85;;;20.35;;
12112;SDS011;6120;52.250;8.478;2024-01-11T13:01:04;52.63;;;19.95;;
12112;SDS011;6120;52.250;8.478;2024-01-11T13:03:34;55.67;;;18.77;;
12112;SDS011;6120;52.250;8.478;2024-01-11T13:06:04;57.08;;;20.58;;
12112;SDS011;6120;52.250;8.478;2024-01-11T13:08:32;57.13;;;20.05;;
12112;SDS011;6120;52.250;8.478;2024-01-11T13:11:01;56.60;;;19.52;;
12112;SDS011;6120;52.250;8.478;2024-01-11T13:13:31;50.15;;;19.42;;
12112;SDS011;6120;52.250;8.478;2024-01-11T13:15:57;51.88;;;18.00;;
12112;SDS011;6120;52.250;8.478;2024-01-11T13:18:24;52.08;;;19.40;;
12112;SDS011;6120;52.250;8.478;2024-01-11T13:20:51;53.47;;;19.02;;
12112;SDS011;6120;52.250;8.478;2024-01-11T13:23:18;54.72;;;17.88;;
12112;SDS011;6120;52.250;8.478;2024-01-11T13:25:47;49.95;;;18.38;;
12112;SDS011;6120;52.250;8.478;2024-01-11T13:28:16;58.05;;;19.90;;
12112;SDS011;6120;52.250;8.478;2024-01-11T13:30:44;63.70;;;20.67;;
12112;SDS011;6120;52.250;8.478;2024-01-11T13:33:12;50.92;;;19.27;;
12112;SDS011;6120;52.250;8.478;2024-01-11T13:35:39;54.08;;;20.20;;
12112;SDS011;6120;52.250;8.478;2024-01-11T13:38:07;47.58;;;19.52;;
12112;SDS011;6120;52.250;8.478;2024-01-11T13:40:34;56.80;;;18.50;;
12112;SDS011;6120;52.250;8.478;2024-01-11T13:43:06;54.10;;;17.75;;
12112;SDS011;6120;52.250;8.478;2024-01-11T13:45:33;54.28;;;19.73;;
12112;SDS011;6120;52.250;8.478;2024-01-11T13:48:05;49.58;;;18.50;;
12112;SDS011;6120;52.250;8.478;2024-01-11T13:50:33;54.58;;;18.83;;
12112;SDS011;6120;52.250;8.478;2024-01-11T13:53:00;46.97;;;17.77;;
12112;SDS011;6120;52.250;8.478;2024-01-11T13:55:28;49.78;;;19.20;;
12112;SDS011;6120;52.250;8.478;2024-01-11T14:00:23;51.80;;;17.52;;
12112;SDS011;6120;52.250;8.478;2024-01-11T14:02:50;54.95;;;18.95;;
12112;SDS011;6120;52.250;8.478;2024-01-11T14:05:17;55.72;;;20.40;;
12112;SDS011;6120;52.250;8.478;2024-01-11T14:07:45;57.28;;;20.75;;
12112;SDS011;6120;52.250;8.478;2024-01-11T14:10:13;56.95;;;18.35;;
12112;SDS011;6120;52.250;8.478;2024-01-11T14:12:40;62.10;;;20.67;;
12112;SDS011;6120;52.250;8.478;2024-01-11T14:15:08;57.05;;;19.75;;
12112;SDS011;6120;52.250;8.478;2024-01-11T14:17:38;61.35;;;19.17;;
12112;SDS011;6120;52.250;8.478;2024-01-11T14:20:06;57.85;;;18.90;;
12112;SDS011;6120;52.250;8.478;2024-01-11T14:22:40;49.22;;;17.63;;
12112;SDS011;6120;52.250;8.478;2024-01-11T14:25:07;58.53;;;19.95;;
12112;SDS011;6120;52.250;8.478;2024-01-11T14:27:37;58.38;;;20.65;;
12112;SDS011;6120;52.250;8.478;2024-01-11T14:30:05;54.88;;;19.05;;
12112;SDS011;6120;52.250;8.478;2024-01-11T14:32:33;47.05;;;18.05;;
12112;SDS011;6120;52.250;8.478;2024-01-11T14:35:03;51.90;;;18.77;;
12112;SDS011;6120;52.250;8.478;2024-01-11T14:37:34;49.10;;;17.10;;
12112;SDS011;6120;52.250;8.478;2024-01-11T14:40:01;44.60;;;16.50;;
12112;SDS011;6120;52.250;8.478;2024-01-11T14:42:28;47.67;;;16.77;;